LPPS/PXO METAR and TAF weather

Enter ICAO airport designator
Station Type Date Time Source
LPPS METAR 2019/02/17 15:30 UTC NOAA

LPPS 171530Z 27013KT 9999 -RA FEW007 SCT010 BKN030 15/13 Q1021


Station Type Date Time Source
LPPS Decoded METAR 2019/02/17 15:30 UTC NOAA

Porto Santo, Portugal (LPPS) 33-04N 016-21W 82M
Feb 17, 2019 - 10:30 AM EST / 2019.02.17 1530 UTC
Wind: from the W (270 degrees) at 15 MPH (13 KT):0
Visibility: greater than 7 mile(s):0
Sky conditions: mostly cloudy
Weather: light rain
Temperature: 59 F (15 C)
Dew Point: 55 F (13 C)
Relative Humidity: 87%
Pressure (altimeter): 30.15 in. Hg (1021 hPa)
ob: LPPS 171530Z 27013KT 9999 -RA FEW007 SCT010 BKN030 15/13 Q1021
cycle: 15

Station Type Date Time Source
LPPS TAF 2019/02/17 13:50 UTC NOAA

TAF
AMD LPPS 171344Z 1713/1818 27012KT 9999 SCT012 BKN030
TEMPO 1713/1720 5000 RADZ BR SCT004 BKN008
BECMG 1717/1720 36020KT SCT015 SCT030 PROB40
TEMPO 1723/1812 36023G35KT SCT015 BKN030


Example: see airport list